createdAt,value
2023-02-24T00:02:15.004Z,9.19
2023-02-24T00:04:41.867Z,9.04
2023-02-24T00:07:15.001Z,9.37
2023-02-24T00:09:41.554Z,9.27
2023-02-24T00:12:13.013Z,8.95
2023-02-24T00:14:41.976Z,8.68
2023-02-24T00:17:09.278Z,9.67
2023-02-24T00:19:37.009Z,8.96
2023-02-24T00:22:06.150Z,9.38
2023-02-24T00:24:34.784Z,9.21
2023-02-24T00:27:08.467Z,10.22
2023-02-24T00:29:37.545Z,9.83
2023-02-24T00:32:09.980Z,9.94
2023-02-24T00:34:37.709Z,9.58
2023-02-24T00:37:06.892Z,9.88
2023-02-24T00:39:35.256Z,9.84
2023-02-24T00:42:04.934Z,9.14
2023-02-24T00:44:36.861Z,9.16
2023-02-24T00:47:05.210Z,8.82
2023-02-24T00:49:32.948Z,10.04
2023-02-24T00:52:00.034Z,9.32
2023-02-24T00:54:29.610Z,9.92
2023-02-24T00:56:57.031Z,8.61
2023-02-24T00:59:26.617Z,8.86
2023-02-24T01:01:54.621Z,8.70
2023-02-24T01:04:21.829Z,9.60
2023-02-24T01:06:51.213Z,10.07
2023-02-24T01:09:20.463Z,9.70
2023-02-24T01:12:07.964Z,9.79
2023-02-24T01:14:36.116Z,9.39
2023-02-24T01:17:04.131Z,9.27
2023-02-24T01:19:32.631Z,10.07
2023-02-24T01:22:01.403Z,9.57
2023-02-24T01:24:30.639Z,9.94
2023-02-24T01:26:59.803Z,9.93
2023-02-24T01:29:26.401Z,8.38
2023-02-24T01:31:57.736Z,9.27
2023-02-24T01:37:48.245Z,9.47
2023-02-24T01:40:20.473Z,8.92
2023-02-24T01:42:47.605Z,8.05
2023-02-24T01:45:19.126Z,9.26
2023-02-24T01:47:47.273Z,8.93
2023-02-24T01:50:16.181Z,9.50
2023-02-24T01:52:46.855Z,9.65
2023-02-24T01:55:22.361Z,8.17
2023-02-24T01:57:53.417Z,8.39
2023-02-24T02:00:40.338Z,7.90
2023-02-24T02:03:13.298Z,9.15
2023-02-24T02:05:41.361Z,8.82
2023-02-24T02:08:09.224Z,8.80
2023-02-24T02:10:39.173Z,8.38
2023-02-24T02:13:08.282Z,8.93
2023-02-24T02:15:41.515Z,8.73
2023-02-24T02:18:35.476Z,8.57
2023-02-24T02:21:34.392Z,9.46
2023-02-24T02:24:27.364Z,9.35
2023-02-24T02:27:21.032Z,9.46
2023-02-24T02:30:06.480Z,9.21
2023-02-24T02:32:43.610Z,8.86
2023-02-24T02:35:23.693Z,8.45
2023-02-24T02:38:15.139Z,8.01
2023-02-24T02:40:53.040Z,9.30
2023-02-24T02:43:33.196Z,7.87
2023-02-24T02:46:14.765Z,8.40
2023-02-24T02:48:48.731Z,8.23
2023-02-24T02:51:24.591Z,8.55
2023-02-24T02:54:01.356Z,8.92
2023-02-24T02:56:37.643Z,8.05
2023-02-24T02:59:06.708Z,7.77
2023-02-24T03:01:37.704Z,8.04
2023-02-24T03:04:08.484Z,7.96
2023-02-24T03:06:43.675Z,8.65
2023-02-24T03:09:16.330Z,8.38
2023-02-24T03:11:53.070Z,8.41
2023-02-24T03:14:26.636Z,8.37
2023-02-24T03:16:55.860Z,8.30
2023-02-24T03:19:30.996Z,8.30
2023-02-24T03:22:27.590Z,8.71
2023-02-24T03:24:55.398Z,8.87
2023-02-24T03:27:58.122Z,8.26
2023-02-24T03:30:32.596Z,8.25
2023-02-24T03:33:09.868Z,8.80
2023-02-24T03:35:39.667Z,8.92
2023-02-24T03:38:06.542Z,8.86
2023-02-24T03:40:35.920Z,7.66
2023-02-24T03:43:32.561Z,8.93
2023-02-24T03:46:10.580Z,8.45
2023-02-24T03:48:46.766Z,8.17
2023-02-24T03:51:22.043Z,8.05
2023-02-24T03:53:48.543Z,8.55
2023-02-24T03:57:02.928Z,8.99
2023-02-24T04:00:20.436Z,9.00
2023-02-24T04:03:09.855Z,7.86
2023-02-24T04:05:48.920Z,7.46
2023-02-24T04:08:25.801Z,7.08
2023-02-24T04:11:05.322Z,8.17
2023-02-24T04:13:35.616Z,8.47
2023-02-24T04:16:36.466Z,8.99
2023-02-24T04:19:09.091Z,7.93
2023-02-24T04:21:38.431Z,7.59
2023-02-24T04:26:58.973Z,8.97
2023-02-24T04:29:38.734Z,8.76
2023-02-24T04:32:11.512Z,8.32
2023-02-24T04:34:40.311Z,8.32
2023-02-24T04:37:07.234Z,7.43
2023-02-24T04:39:39.788Z,8.15
2023-02-24T04:42:07.062Z,7.69
2023-02-24T04:44:33.863Z,7.09
2023-02-24T04:47:00.796Z,7.43
2023-02-24T04:49:27.718Z,7.94
2023-02-24T04:51:54.144Z,8.57
2023-02-24T04:54:21.012Z,7.81
2023-02-24T04:56:50.924Z,7.42
2023-02-24T04:59:22.194Z,7.69
2023-02-24T05:01:52.886Z,8.21
2023-02-24T05:04:22.592Z,8.78
2023-02-24T05:06:49.228Z,7.95
2023-02-24T05:09:17.982Z,7.66
2023-02-24T05:11:46.623Z,8.04
2023-02-24T05:14:14.590Z,8.80
2023-02-24T05:16:43.287Z,7.87
2023-02-24T05:19:34.139Z,7.92
2023-02-24T05:22:05.522Z,8.88
2023-02-24T05:24:31.958Z,8.35
2023-02-24T05:27:03.601Z,8.14
2023-02-24T05:29:33.013Z,8.40
2023-02-24T05:32:00.492Z,8.23
2023-02-24T05:34:30.576Z,8.35
2023-02-24T05:36:59.212Z,7.83
2023-02-24T05:39:26.357Z,8.13
2023-02-24T05:41:54.646Z,8.69
2023-02-24T05:44:23.560Z,8.62
2023-02-24T05:46:56.549Z,8.46
2023-02-24T05:49:32.959Z,8.56
2023-02-24T05:52:01.864Z,7.99
2023-02-24T05:54:30.479Z,8.53
2023-02-24T05:57:02.672Z,8.56
2023-02-24T05:59:33.210Z,8.44
2023-02-24T06:02:06.822Z,8.46
2023-02-24T06:04:40.638Z,8.56
2023-02-24T06:07:20.913Z,7.51
2023-02-24T06:09:53.657Z,7.13
2023-02-24T06:12:22.170Z,8.39
2023-02-24T06:14:48.615Z,8.28
2023-02-24T06:17:16.957Z,8.59
2023-02-24T06:19:44.813Z,7.21
2023-02-24T06:22:16.213Z,8.06
2023-02-24T06:24:45.517Z,7.78
2023-02-24T06:27:17.906Z,8.44
2023-02-24T06:29:51.604Z,8.46
2023-02-24T06:32:23.848Z,7.83
2023-02-24T06:34:51.846Z,8.62
2023-02-24T06:37:18.330Z,7.72
2023-02-24T06:39:45.229Z,8.33
2023-02-24T06:42:12.877Z,7.84
2023-02-24T06:44:40.983Z,8.55
2023-02-24T06:47:10.879Z,7.58
2023-02-24T06:49:37.508Z,8.45
2023-02-24T06:52:04.535Z,8.39
2023-02-24T06:54:37.769Z,7.46
2023-02-24T06:57:04.487Z,7.78
2023-02-24T06:59:32.340Z,7.74
2023-02-24T07:02:01.931Z,7.35
2023-02-24T07:04:29.164Z,8.22
2023-02-24T07:07:02.914Z,7.78
2023-02-24T07:09:41.043Z,8.17
2023-02-24T07:12:07.959Z,7.98
2023-02-24T07:14:36.909Z,7.74
2023-02-24T07:17:03.633Z,7.74
2023-02-24T07:19:32.390Z,7.45
2023-02-24T07:22:00.897Z,8.57
2023-02-24T07:24:33.315Z,8.64
2023-02-24T07:27:04.065Z,7.89
2023-02-24T07:29:32.448Z,8.18
2023-02-24T07:32:05.455Z,7.88
2023-02-24T07:34:33.598Z,7.64
2023-02-24T07:37:07.801Z,8.18
2023-02-24T07:39:36.868Z,8.52
2023-02-24T07:42:04.085Z,8.35
2023-02-24T07:44:30.689Z,7.19
2023-02-24T07:46:59.143Z,7.87
2023-02-24T07:49:27.768Z,8.47
2023-02-24T07:51:57.855Z,8.34
2023-02-24T07:54:27.705Z,7.51
2023-02-24T07:56:57.731Z,8.22
2023-02-24T07:59:38.075Z,8.81
2023-02-24T08:02:07.577Z,7.88
2023-02-24T08:04:36.223Z,8.66
2023-02-24T08:07:04.098Z,8.51
2023-02-24T08:09:45.819Z,8.11
2023-02-24T08:12:21.122Z,8.61
2023-02-24T08:14:54.263Z,8.75
2023-02-24T08:17:26.275Z,8.67
2023-02-24T08:20:14.556Z,8.53
2023-02-24T08:22:46.994Z,8.53
2023-02-24T08:25:19.177Z,8.74
2023-02-24T08:28:06.401Z,8.57
2023-02-24T08:30:44.827Z,8.32
2023-02-24T08:33:20.503Z,8.12
2023-02-24T08:35:52.374Z,8.60
2023-02-24T08:39:24.458Z,8.59
2023-02-24T08:41:54.875Z,8.25
2023-02-24T08:44:21.324Z,8.75
2023-02-24T08:46:49.974Z,8.06
2023-02-24T08:49:17.160Z,8.24
2023-02-24T08:51:48.777Z,8.74
2023-02-24T08:54:27.598Z,8.89
2023-02-24T08:56:56.435Z,7.82
2023-02-24T08:59:59.180Z,8.30
2023-02-24T09:02:29.251Z,8.77
2023-02-24T09:05:03.685Z,8.55
2023-02-24T09:07:36.463Z,8.28
2023-02-24T09:10:11.622Z,9.26
2023-02-24T09:13:10.818Z,8.99
2023-02-24T09:15:41.502Z,8.57
2023-02-24T09:18:08.039Z,8.78
2023-02-24T09:20:53.124Z,8.33
2023-02-24T09:23:29.710Z,7.93
2023-02-24T09:25:56.958Z,8.85
2023-02-24T09:28:32.717Z,8.45
2023-02-24T09:31:04.736Z,9.19
2023-02-24T09:34:01.981Z,9.15
2023-02-24T09:36:28.390Z,8.82
2023-02-24T09:39:00.449Z,9.17
2023-02-24T09:42:17.831Z,8.50
2023-02-24T09:44:52.597Z,8.41
2023-02-24T09:47:57.308Z,9.69
2023-02-24T09:51:02.689Z,9.39
2023-02-24T09:53:49.203Z,8.94
2023-02-24T09:56:28.544Z,8.96
2023-02-24T09:59:20.730Z,9.32
2023-02-24T10:02:28.110Z,9.66
2023-02-24T10:05:07.018Z,8.49
2023-02-24T10:07:40.857Z,9.05
2023-02-24T10:10:21.015Z,8.84
2023-02-24T10:12:52.621Z,9.30
2023-02-24T10:15:46.779Z,8.98
2023-02-24T10:18:29.707Z,9.25
2023-02-24T10:21:06.635Z,8.36
2023-02-24T10:24:16.092Z,8.73
2023-02-24T10:27:01.310Z,7.82
2023-02-24T10:29:55.554Z,8.83
2023-02-24T10:32:47.855Z,8.79
2023-02-24T10:35:17.499Z,8.18
2023-02-24T10:37:44.920Z,8.45
2023-02-24T10:40:17.419Z,8.34
2023-02-24T10:42:48.738Z,7.51
2023-02-24T10:45:27.366Z,8.88
2023-02-24T10:48:05.237Z,8.58
2023-02-24T10:50:55.216Z,8.45
2023-02-24T10:53:29.657Z,7.60
2023-02-24T10:56:22.674Z,8.99
2023-02-24T10:59:20.412Z,8.69
2023-02-24T11:01:59.236Z,9.01
2023-02-24T11:05:02.845Z,7.87
2023-02-24T11:07:53.552Z,8.95
2023-02-24T11:10:26.241Z,8.43
2023-02-24T11:13:14.164Z,8.49
2023-02-24T11:16:11.025Z,8.60
2023-02-24T11:18:39.260Z,8.82
2023-02-24T11:21:10.740Z,8.14
2023-02-24T11:23:44.144Z,8.49
2023-02-24T11:26:33.890Z,7.82
2023-02-24T11:29:32.374Z,8.11
2023-02-24T11:32:30.224Z,7.88
2023-02-24T11:35:04.226Z,7.82
2023-02-24T11:37:40.677Z,8.22
2023-02-24T11:40:27.680Z,8.11
2023-02-24T11:43:11.719Z,8.11
2023-02-24T11:45:41.020Z,8.07
2023-02-24T11:48:19.901Z,6.91
2023-02-24T11:50:55.632Z,7.88
2023-02-24T11:53:49.357Z,8.15
2023-02-24T11:56:23.012Z,7.85
2023-02-24T11:58:49.404Z,8.04
2023-02-24T12:01:35.226Z,6.86
2023-02-24T12:04:10.536Z,8.20
2023-02-24T12:06:56.831Z,6.99
2023-02-24T12:09:29.035Z,8.04
2023-02-24T12:12:23.545Z,8.29
2023-02-24T12:18:24.328Z,7.90
2023-02-24T12:21:13.855Z,8.22
2023-02-24T12:23:46.146Z,7.54
2023-02-24T12:27:11.434Z,8.34
2023-02-24T12:34:08.539Z,8.38
2023-02-24T12:36:56.920Z,8.52
2023-02-24T12:39:41.944Z,7.92
2023-02-24T12:42:19.274Z,7.54
2023-02-24T12:45:16.683Z,8.19
2023-02-24T12:47:56.442Z,8.52
2023-02-24T12:50:44.806Z,7.57
2023-02-24T12:53:57.520Z,8.14
2023-02-24T12:56:46.883Z,8.20
2023-02-24T12:59:20.231Z,8.13
2023-02-24T13:02:06.168Z,8.42
2023-02-24T13:04:39.068Z,8.59
2023-02-24T13:07:24.267Z,8.40
2023-02-24T13:10:24.577Z,8.27
2023-02-24T13:12:59.510Z,8.28
2023-02-24T13:15:31.148Z,8.27
2023-02-24T13:17:58.417Z,7.53
2023-02-24T13:20:26.446Z,8.35
2023-02-24T13:22:53.086Z,7.51
2023-02-24T13:25:30.509Z,8.08
2023-02-24T13:28:00.183Z,8.39
2023-02-24T13:30:33.219Z,8.09
2023-02-24T13:33:21.888Z,8.48
2023-02-24T13:35:52.221Z,8.07
2023-02-24T13:38:30.800Z,8.42
2023-02-24T13:41:27.552Z,8.42
2023-02-24T13:43:58.793Z,8.56
2023-02-24T13:46:29.667Z,7.41
2023-02-24T13:49:22.894Z,8.62
2023-02-24T13:51:59.306Z,8.02
2023-02-24T13:54:38.744Z,8.35
2023-02-24T13:57:33.122Z,8.18
2023-02-24T14:00:21.872Z,8.37
2023-02-24T14:02:49.238Z,8.56
2023-02-24T14:05:27.607Z,8.00
2023-02-24T14:07:55.412Z,7.94
2023-02-24T14:10:26.050Z,7.99
2023-02-24T14:13:29.155Z,8.31
2023-02-24T14:15:56.615Z,7.33
2023-02-24T14:18:28.161Z,7.09
2023-02-24T14:20:56.771Z,8.13
2023-02-24T14:23:28.786Z,7.79
2023-02-24T14:26:03.174Z,7.13
2023-02-24T14:28:36.308Z,8.23
2023-02-24T14:31:10.888Z,7.37
2023-02-24T14:33:40.377Z,7.88
2023-02-24T14:36:25.509Z,7.67
2023-02-24T14:39:14.643Z,8.34
2023-02-24T14:41:43.444Z,7.86
2023-02-24T14:44:23.787Z,8.48
2023-02-24T14:47:00.219Z,8.09
2023-02-24T14:49:29.452Z,7.14
2023-02-24T14:52:16.782Z,8.19
2023-02-24T14:54:50.461Z,8.14
2023-02-24T14:57:24.715Z,7.93
2023-02-24T15:00:00.061Z,8.50
2023-02-24T15:02:33.341Z,8.34
2023-02-24T15:05:00.353Z,8.20
2023-02-24T15:07:30.489Z,7.97
2023-02-24T15:10:25.052Z,7.53
2023-02-24T15:13:00.956Z,7.20
2023-02-24T15:15:38.112Z,8.48
2023-02-24T15:18:15.042Z,8.58
2023-02-24T15:20:41.632Z,8.33
2023-02-24T15:23:31.086Z,8.51
2023-02-24T15:25:58.327Z,8.56
2023-02-24T15:28:36.261Z,8.35
2023-02-24T15:31:18.671Z,8.55
2023-02-24T15:33:54.374Z,8.75
2023-02-24T15:36:34.537Z,7.90
2023-02-24T15:39:05.364Z,7.95
2023-02-24T15:41:46.564Z,8.72
2023-02-24T15:44:31.399Z,8.44
2023-02-24T15:46:59.994Z,7.72
2023-02-24T15:49:26.439Z,8.26
2023-02-24T15:51:55.813Z,8.85
2023-02-24T15:54:30.391Z,8.76
2023-02-24T15:57:06.843Z,9.01
2023-02-24T15:59:33.864Z,8.76
2023-02-24T16:02:00.276Z,8.78
2023-02-24T16:04:27.748Z,8.78
2023-02-24T16:09:56.549Z,8.08
2023-02-24T16:12:33.123Z,8.42
2023-02-24T16:15:04.080Z,9.06
2023-02-24T16:17:40.933Z,8.98
2023-02-24T16:20:13.546Z,7.78
2023-02-24T16:22:40.174Z,8.10
2023-02-24T16:25:08.790Z,8.28
2023-02-24T16:27:35.971Z,8.48
2023-02-24T16:30:02.941Z,8.38
2023-02-24T16:32:29.653Z,7.63
2023-02-24T16:34:57.056Z,8.05
2023-02-24T16:37:28.649Z,7.99
2023-02-24T16:39:56.764Z,8.86
2023-02-24T16:42:23.232Z,8.03
2023-02-24T16:44:50.017Z,8.58
2023-02-24T16:47:23.435Z,8.93
2023-02-24T16:50:04.572Z,8.59
2023-02-24T16:52:31.016Z,7.63
2023-02-24T16:54:58.588Z,8.81
2023-02-24T16:57:25.788Z,8.56
2023-02-24T16:59:52.621Z,7.73
2023-02-24T17:02:22.485Z,8.06
2023-02-24T17:04:49.139Z,8.07
2023-02-24T17:07:16.277Z,7.95
2023-02-24T17:09:42.692Z,8.20
2023-02-24T17:12:12.790Z,8.91
2023-02-24T17:14:41.930Z,8.12
2023-02-24T17:17:08.476Z,8.24
2023-02-24T17:19:34.950Z,8.06
2023-02-24T17:22:01.476Z,8.18
2023-02-24T17:24:31.044Z,8.47
2023-02-24T17:26:59.808Z,8.42
2023-02-24T17:29:26.792Z,8.91
2023-02-24T17:31:53.431Z,9.00
2023-02-24T17:34:21.693Z,8.94
2023-02-24T17:36:48.068Z,8.27
2023-02-24T17:39:14.425Z,8.57
2023-02-24T17:41:40.867Z,8.66
2023-02-24T17:44:07.254Z,8.81
2023-02-24T17:46:33.656Z,7.89
2023-02-24T17:49:13.503Z,7.80
2023-02-24T17:51:40.016Z,8.53
2023-02-24T17:54:08.485Z,8.29
2023-02-24T17:56:35.101Z,8.39
2023-02-24T17:59:01.536Z,7.90
2023-02-24T18:01:28.633Z,8.87
2023-02-24T18:03:57.357Z,9.04
2023-02-24T18:06:24.521Z,7.48
2023-02-24T18:08:51.063Z,8.77
2023-02-24T18:11:19.612Z,7.43
2023-02-24T18:13:47.477Z,8.41
2023-02-24T18:16:15.289Z,8.40
2023-02-24T18:18:41.995Z,8.22
2023-02-24T18:21:08.715Z,8.88
2023-02-24T18:23:36.511Z,8.21
2023-02-24T18:26:04.534Z,7.77
2023-02-24T18:28:32.339Z,8.91
2023-02-24T18:31:00.429Z,8.85
2023-02-24T18:33:27.409Z,8.54
2023-02-24T18:36:01.061Z,8.73
2023-02-24T18:38:30.697Z,7.62
2023-02-24T18:41:05.185Z,7.69
2023-02-24T18:43:33.049Z,8.58
2023-02-24T18:46:01.611Z,8.40
2023-02-24T18:48:29.746Z,8.73
2023-02-24T18:51:00.585Z,8.42
2023-02-24T18:53:30.159Z,7.88
2023-02-24T18:56:05.629Z,7.90
2023-02-24T18:58:32.110Z,8.03
2023-02-24T19:00:59.575Z,8.48
2023-02-24T19:03:26.118Z,7.96
2023-02-24T19:05:52.616Z,8.02
2023-02-24T19:08:19.305Z,7.74
2023-02-24T19:10:48.103Z,8.10
2023-02-24T19:13:14.743Z,7.88
2023-02-24T19:15:41.168Z,8.82
2023-02-24T19:18:07.707Z,8.20
2023-02-24T19:20:34.125Z,7.43
2023-02-24T19:23:01.294Z,7.93
2023-02-24T19:25:27.748Z,7.99
2023-02-24T19:27:54.259Z,8.43
2023-02-24T19:30:20.824Z,7.93
2023-02-24T19:32:47.390Z,7.87
2023-02-24T19:35:13.995Z,8.46
2023-02-24T19:37:40.465Z,7.60
2023-02-24T19:40:07.342Z,8.02
2023-02-24T19:42:33.956Z,8.09
2023-02-24T19:45:00.462Z,7.65
2023-02-24T19:47:27.043Z,7.14
2023-02-24T19:49:53.537Z,7.66
2023-02-24T19:52:20.007Z,7.83
2023-02-24T19:54:46.472Z,7.93
2023-02-24T19:57:12.910Z,6.95
2023-02-24T19:59:39.583Z,8.00
2023-02-24T20:02:06.864Z,8.06
2023-02-24T20:04:33.554Z,7.83
2023-02-24T20:07:00.027Z,7.76
2023-02-24T20:09:26.955Z,8.47
2023-02-24T20:11:54.727Z,8.61
2023-02-24T20:14:21.352Z,8.45
2023-02-24T20:16:48.032Z,7.36
2023-02-24T20:19:15.575Z,8.62
2023-02-24T20:21:44.748Z,8.57
2023-02-24T20:24:14.101Z,8.89
2023-02-24T20:26:42.355Z,7.88
2023-02-24T20:29:09.385Z,8.63
2023-02-24T20:31:36.027Z,8.46
2023-02-24T20:34:08.939Z,8.11
2023-02-24T20:36:35.559Z,8.10
2023-02-24T20:39:02.291Z,8.09
2023-02-24T20:41:32.996Z,8.13
2023-02-24T20:43:59.714Z,8.55
2023-02-24T20:46:30.249Z,7.23
2023-02-24T20:49:01.459Z,7.56
2023-02-24T20:51:29.393Z,8.57
2023-02-24T20:53:58.502Z,8.27
2023-02-24T20:56:28.097Z,7.13
2023-02-24T20:59:05.995Z,8.07
2023-02-24T21:01:36.772Z,7.67
2023-02-24T21:04:03.688Z,7.91
2023-02-24T21:06:32.992Z,7.06
2023-02-24T21:08:59.761Z,7.99
2023-02-24T21:11:26.921Z,8.22
2023-02-24T21:13:56.091Z,7.97
2023-02-24T21:16:24.532Z,7.38
2023-02-24T21:18:53.972Z,7.38
2023-02-24T21:21:20.926Z,7.40
2023-02-24T21:23:47.934Z,7.44
2023-02-24T21:26:14.550Z,7.78
2023-02-24T21:28:40.982Z,7.15
2023-02-24T21:31:12.648Z,7.61
2023-02-24T21:33:39.275Z,7.73
2023-02-24T21:36:13.432Z,7.65
2023-02-24T21:38:41.100Z,8.08
2023-02-24T21:41:14.915Z,7.86
2023-02-24T21:43:42.477Z,7.31
2023-02-24T21:46:09.142Z,7.04
2023-02-24T21:48:36.979Z,6.85
2023-02-24T21:51:08.391Z,6.83
2023-02-24T21:53:38.303Z,7.85
2023-02-24T21:56:19.464Z,7.03
2023-02-24T21:58:52.003Z,7.83
2023-02-24T22:01:24.419Z,7.29
2023-02-24T22:03:59.290Z,6.02
2023-02-24T22:06:31.714Z,6.14
2023-02-24T22:08:59.529Z,6.70
2023-02-24T22:11:25.997Z,6.64
2023-02-24T22:13:52.824Z,7.45
2023-02-24T22:16:22.150Z,7.11
2023-02-24T22:18:49.391Z,7.41
2023-02-24T22:21:18.406Z,7.57
2023-02-24T22:23:47.565Z,6.29
2023-02-24T22:26:15.097Z,7.10
2023-02-24T22:28:49.605Z,6.79
2023-02-24T22:31:19.368Z,6.70
2023-02-24T22:33:46.231Z,7.50
2023-02-24T22:36:19.261Z,7.01
2023-02-24T22:38:46.667Z,6.86
2023-02-24T22:41:19.281Z,6.75
2023-02-24T22:43:45.851Z,7.29
2023-02-24T22:46:15.314Z,7.31
2023-02-24T22:48:42.056Z,7.30
2023-02-24T22:51:10.834Z,7.13
2023-02-24T22:53:40.209Z,7.09
2023-02-24T22:56:08.158Z,6.98
2023-02-24T22:58:34.535Z,6.93
2023-02-24T23:01:00.947Z,6.66
2023-02-24T23:03:30.931Z,6.67
2023-02-24T23:05:59.150Z,7.34
2023-02-24T23:08:27.512Z,7.46
2023-02-24T23:10:55.983Z,6.47
2023-02-24T23:13:22.463Z,7.20
2023-02-24T23:18:36.976Z,7.24
2023-02-24T23:21:06.271Z,7.26
2023-02-24T23:23:33.881Z,7.27
2023-02-24T23:26:00.435Z,6.75
2023-02-24T23:28:27.795Z,6.83
2023-02-24T23:31:04.450Z,7.15
2023-02-24T23:33:30.900Z,7.11
2023-02-24T23:36:03.189Z,7.62
2023-02-24T23:38:39.249Z,7.08
2023-02-24T23:41:10.426Z,7.42
2023-02-24T23:43:39.848Z,6.93
2023-02-24T23:46:08.649Z,7.68
2023-02-24T23:48:36.125Z,7.67
2023-02-24T23:51:08.152Z,7.84
2023-02-24T23:53:42.898Z,7.59
2023-02-24T23:56:20.610Z,7.52
2023-02-24T23:58:52.438Z,7.67
